createdAt,value
2022-12-01T06:02:32.299Z,101101.13
2022-12-01T06:04:59.272Z,101097.59
2022-12-01T06:07:26.024Z,101104.63
2022-12-01T06:09:54.554Z,101100.25
2022-12-01T06:12:21.185Z,101098.47
2022-12-01T06:14:48.093Z,101099.34
2022-12-01T06:17:14.642Z,101109.03
2022-12-01T06:19:43.695Z,101100.25
2022-12-01T06:22:10.631Z,101099.38
2022-12-01T06:24:37.844Z,101109.91
2022-12-01T06:27:04.458Z,101109.91
2022-12-01T06:29:31.558Z,101107.25
2022-12-01T06:31:58.214Z,101109.91
2022-12-01T06:34:25.407Z,101105.50
2022-12-01T06:36:51.946Z,101120.44
2022-12-01T06:39:19.265Z,101108.16
2022-12-01T06:41:45.978Z,101117.81
2022-12-01T06:44:12.990Z,101125.72
2022-12-01T06:46:39.585Z,101121.34
2022-12-01T06:49:06.503Z,101128.38
2022-12-01T06:51:34.309Z,101129.25
2022-12-01T06:54:05.418Z,101135.41
2022-12-01T06:56:32.477Z,101138.03
2022-12-01T06:58:59.900Z,101136.28
2022-12-01T07:01:28.268Z,101130.16
2022-12-01T07:03:58.687Z,101135.41
2022-12-01T07:06:25.708Z,101145.09
2022-12-01T07:08:53.398Z,101138.91
2022-12-01T07:11:20.094Z,101137.16
2022-12-01T07:13:47.453Z,101146.81
2022-12-01T07:16:14.139Z,101151.22
2022-12-01T07:18:41.289Z,101153.84
2022-12-01T07:21:11.358Z,101160.88
2022-12-01T07:23:38.824Z,101161.75
2022-12-01T07:26:07.039Z,101159.09
2022-12-01T07:28:34.549Z,101160.84
2022-12-01T07:31:07.358Z,101157.34
2022-12-01T07:33:34.828Z,101155.59
2022-12-01T07:36:01.828Z,101155.59
2022-12-01T07:38:29.804Z,101166.09
2022-12-01T07:41:05.822Z,101156.44
2022-12-01T07:43:33.686Z,101154.69
2022-12-01T07:46:18.909Z,101152.03
2022-12-01T07:48:49.520Z,101157.31
2022-12-01T07:51:16.841Z,101159.06
2022-12-01T07:53:45.605Z,101159.06
2022-12-01T07:56:12.537Z,101167.00
2022-12-01T07:58:39.987Z,101166.13
2022-12-01T08:01:12.584Z,101162.59
2022-12-01T08:03:40.955Z,101168.75
2022-12-01T08:06:08.427Z,101162.59
2022-12-01T08:08:39.072Z,101160.84
2022-12-01T08:11:19.104Z,101166.97
2022-12-01T08:13:46.856Z,101166.97
2022-12-01T08:16:15.967Z,101166.06
2022-12-01T08:18:44.108Z,101175.78
2022-12-01T08:21:19.532Z,101166.97
2022-12-01T08:23:56.052Z,101170.47
2022-12-01T08:26:24.542Z,101174.88
2022-12-01T08:28:54.883Z,101179.25
2022-12-01T08:31:33.178Z,101174.00
2022-12-01T08:34:00.706Z,101181.03
2022-12-01T08:36:43.367Z,101185.41
2022-12-01T08:39:24.306Z,101192.44
2022-12-01T08:41:51.190Z,101195.06
2022-12-01T08:44:18.643Z,101186.31
2022-12-01T08:46:48.671Z,101198.63
2022-12-01T08:49:18.766Z,101199.50
2022-12-01T08:51:48.426Z,101196.88
2022-12-01T08:54:15.914Z,101195.16
2022-12-01T08:56:44.685Z,101201.31
2022-12-01T08:59:14.266Z,101192.53
2022-12-01T09:01:52.517Z,101199.56
2022-12-01T09:04:35.174Z,101198.72
2022-12-01T09:07:04.910Z,101203.09
2022-12-01T09:09:32.190Z,101195.19
2022-12-01T09:11:58.994Z,101207.53
2022-12-01T09:14:28.815Z,101202.25
2022-12-01T09:16:58.665Z,101207.53
2022-12-01T09:19:29.252Z,101205.78
2022-12-01T09:21:56.276Z,101208.44
2022-12-01T09:24:25.559Z,101211.94
2022-12-01T09:26:59.450Z,101211.97
2022-12-01T09:29:30.201Z,101208.44
2022-12-01T09:32:11.251Z,101214.63
2022-12-01T09:34:53.965Z,101211.09
2022-12-01T09:37:21.229Z,101217.25
2022-12-01T09:39:48.270Z,101214.59
2022-12-01T09:42:19.345Z,101211.97
2022-12-01T09:44:55.789Z,101211.97
2022-12-01T09:47:34.480Z,101209.34
2022-12-01T09:50:20.157Z,101204.06
2022-12-01T09:53:20.146Z,101208.44
2022-12-01T09:55:47.213Z,101207.56
2022-12-01T09:58:21.132Z,101210.25
2022-12-01T10:00:50.423Z,101200.53
2022-12-01T10:03:46.916Z,101198.78
2022-12-01T10:06:28.753Z,101203.19
2022-12-01T10:09:27.924Z,101210.22
2022-12-01T10:12:00.895Z,101199.69
2022-12-01T10:14:31.783Z,101204.03
2022-12-01T10:17:07.255Z,101196.16
2022-12-01T10:19:40.319Z,101199.66
2022-12-01T10:22:33.638Z,101198.78
2022-12-01T10:25:15.319Z,101200.56
2022-12-01T10:28:11.572Z,101193.50
2022-12-01T10:30:50.424Z,101191.72
2022-12-01T10:33:17.673Z,101192.59
2022-12-01T10:35:44.483Z,101193.50
2022-12-01T10:38:35.200Z,101182.94
2022-12-01T10:41:04.383Z,101176.78
2022-12-01T10:43:39.579Z,101189.09
2022-12-01T10:46:27.400Z,101178.53
2022-12-01T10:49:00.551Z,101176.78
2022-12-01T10:51:28.154Z,101173.25
2022-12-01T10:54:00.589Z,101168.84
2022-12-01T10:56:28.093Z,101173.28
2022-12-01T10:58:58.741Z,101174.13
2022-12-01T11:01:28.197Z,101177.66
2022-12-01T11:04:06.291Z,101171.50
2022-12-01T11:06:34.648Z,101177.66
2022-12-01T11:09:04.332Z,101176.78
2022-12-01T11:11:39.130Z,101180.28
2022-12-01T11:14:21.396Z,101180.31
2022-12-01T11:16:51.868Z,101173.25
2022-12-01T11:19:34.785Z,101176.78
2022-12-01T11:22:20.452Z,101168.88
2022-12-01T11:24:53.210Z,101186.44
2022-12-01T11:27:23.512Z,101179.41
2022-12-01T11:29:52.924Z,101178.53
2022-12-01T11:32:30.535Z,101168.00
2022-12-01T11:34:59.078Z,101173.28
2022-12-01T11:37:36.350Z,101168.84
2022-12-01T11:40:13.659Z,101171.50
2022-12-01T11:42:41.722Z,101175.03
2022-12-01T11:45:20.550Z,101169.72
2022-12-01T11:48:01.794Z,101166.22
2022-12-01T11:50:31.874Z,101174.16
2022-12-01T11:52:59.346Z,101171.47
2022-12-01T11:55:28.096Z,101170.59
2022-12-01T11:57:59.621Z,101171.47
2022-12-01T12:00:34.850Z,101167.94
2022-12-01T12:03:19.642Z,101167.06
2022-12-01T12:06:39.130Z,101160.91
2022-12-01T12:09:02.359Z,101161.84
2022-12-01T12:11:53.469Z,101166.22
2022-12-01T12:14:40.103Z,101161.81
2022-12-01T12:17:39.279Z,101165.34
2022-12-01T12:20:21.948Z,101153.91
2022-12-01T12:23:08.101Z,101158.28
2022-12-01T12:26:08.368Z,101153.91
2022-12-01T12:29:12.255Z,101159.19
2022-12-01T12:31:55.866Z,101159.16
2022-12-01T12:34:49.622Z,101162.69
2022-12-01T12:37:25.067Z,101152.13
2022-12-01T12:40:04.849Z,101153.03
2022-12-01T12:42:40.139Z,101142.47
2022-12-01T12:45:22.882Z,101141.59
2022-12-01T12:48:14.533Z,101145.97
2022-12-01T12:51:08.935Z,101147.75
2022-12-01T12:53:45.054Z,101138.06
2022-12-01T12:56:15.504Z,101134.53
2022-12-01T12:58:53.514Z,101149.50
2022-12-01T13:01:29.075Z,101143.34
2022-12-01T13:04:17.860Z,101131.03
2022-12-01T13:06:54.516Z,101137.19
2022-12-01T13:09:32.054Z,101127.53
2022-12-01T13:12:17.214Z,101131.03
2022-12-01T13:14:55.136Z,101128.38
2022-12-01T13:17:33.678Z,101131.03
2022-12-01T13:20:00.962Z,101132.78
2022-12-01T13:22:34.480Z,101132.78
2022-12-01T13:25:02.729Z,101127.50
2022-12-01T13:27:34.886Z,101122.22
2022-12-01T13:30:01.869Z,101125.72
2022-12-01T13:32:36.620Z,101128.38
2022-12-01T13:35:07.916Z,101124.88
2022-12-01T13:37:38.963Z,101117.84
2022-12-01T13:40:27.691Z,101116.97
2022-12-01T13:43:08.873Z,101113.44
2022-12-01T13:45:39.978Z,101115.19
2022-12-01T13:48:30.327Z,101115.19
2022-12-01T13:51:00.150Z,101123.09
2022-12-01T13:53:32.511Z,101113.44
2022-12-01T13:56:17.440Z,101125.72
2022-12-01T13:58:47.061Z,101126.63
2022-12-01T14:01:19.906Z,101122.22
2022-12-01T14:04:03.850Z,101128.41
2022-12-01T14:06:51.384Z,101131.00
2022-12-01T14:09:32.431Z,101133.66
2022-12-01T14:12:02.912Z,101129.25
2022-12-01T14:14:38.196Z,101136.25
2022-12-01T14:17:06.031Z,101125.72
2022-12-01T14:19:39.270Z,101131.00
2022-12-01T14:22:07.832Z,101130.09
2022-12-01T14:24:39.207Z,101129.25
2022-12-01T14:27:07.658Z,101147.72
2022-12-01T14:29:40.270Z,101136.28
2022-12-01T14:32:15.703Z,101140.63
2022-12-01T14:34:43.285Z,101138.84
2022-12-01T14:37:13.371Z,101141.47
2022-12-01T14:39:52.464Z,101135.31
2022-12-01T14:43:02.192Z,101150.19
2022-12-01T14:45:35.757Z,101146.66
2022-12-01T14:48:06.141Z,101142.25
2022-12-01T14:50:53.269Z,101156.31
2022-12-01T14:53:31.259Z,101158.94
2022-12-01T14:56:11.686Z,101155.41
2022-12-01T14:58:39.264Z,101159.78
2022-12-01T15:01:14.054Z,101172.13
2022-12-01T15:03:49.471Z,101165.97
2022-12-01T15:06:21.626Z,101178.28
2022-12-01T15:12:03.011Z,101158.94
2022-12-01T15:14:33.674Z,101157.19
2022-12-01T15:17:02.527Z,101151.84
2022-12-01T15:19:39.329Z,101158.03
2022-12-01T15:22:13.491Z,101143.09
2022-12-01T15:24:41.232Z,101139.59
2022-12-01T15:27:23.702Z,101138.72
2022-12-01T15:29:51.291Z,101136.06
2022-12-01T15:32:21.322Z,101139.59
2022-12-01T15:34:52.629Z,101129.03
2022-12-01T15:37:24.146Z,101141.31
2022-12-01T15:43:19.708Z,101141.31
2022-12-01T15:45:56.660Z,101143.94
2022-12-01T15:48:33.093Z,101148.38
2022-12-01T15:51:08.093Z,101147.50
2022-12-01T15:53:38.726Z,101142.19
2022-12-01T15:56:09.237Z,101149.22
2022-12-01T15:58:50.078Z,101150.09
2022-12-01T16:01:21.033Z,101142.19
2022-12-01T16:03:50.399Z,101143.94
2022-12-01T16:06:18.155Z,101139.56
2022-12-01T16:09:01.148Z,101138.66
2022-12-01T16:11:28.873Z,101144.81
2022-12-01T16:13:55.943Z,101146.56
2022-12-01T16:16:36.299Z,101145.69
2022-12-01T16:19:09.859Z,101145.69
2022-12-01T16:21:52.899Z,101141.31
2022-12-01T16:24:19.778Z,101146.56
2022-12-01T16:26:57.738Z,101143.00
2022-12-01T16:29:27.253Z,101138.63
2022-12-01T16:32:19.284Z,101153.56
2022-12-01T16:34:46.632Z,101144.78
2022-12-01T16:37:15.602Z,101144.75
2022-12-01T16:39:43.427Z,101140.34
2022-12-01T16:42:30.257Z,101144.72
2022-12-01T16:45:00.442Z,101143.81
2022-12-01T16:47:27.114Z,101151.72
2022-12-01T16:49:54.474Z,101144.72
2022-12-01T16:52:44.142Z,101155.22
2022-12-01T16:55:48.241Z,101156.06
2022-12-01T16:58:14.916Z,101156.91
2022-12-01T17:00:42.506Z,101151.63
2022-12-01T17:03:16.236Z,101155.16
2022-12-01T17:05:43.476Z,101152.50
2022-12-01T17:08:10.137Z,101149.88
2022-12-01T17:10:41.471Z,101155.09
2022-12-01T17:13:08.827Z,101162.13
2022-12-01T17:15:36.147Z,101157.72
2022-12-01T17:18:02.748Z,101158.59
2022-12-01T17:20:39.696Z,101154.19
2022-12-01T17:23:06.736Z,101158.59
2022-12-01T17:25:41.068Z,101163.84
2022-12-01T17:28:13.933Z,101162.94
2022-12-01T17:30:41.244Z,101165.56
2022-12-01T17:33:07.945Z,101168.19
2022-12-01T17:35:35.390Z,101163.75
2022-12-01T17:38:02.018Z,101163.75
2022-12-01T17:40:29.437Z,101170.75
2022-12-01T17:42:58.483Z,101169.03
2022-12-01T17:45:25.842Z,101174.31
2022-12-01T17:47:54.424Z,101169.91
2022-12-01T17:50:34.821Z,101172.53
2022-12-01T17:53:17.959Z,101179.56
2022-12-01T17:56:08.637Z,101174.28
2022-12-01T18:02:50.029Z,101181.28
2022-12-01T18:05:26.568Z,101181.25
2022-12-01T18:07:58.936Z,101179.50
2022-12-01T18:10:26.790Z,101181.25
2022-12-01T18:13:37.171Z,101177.72
2022-12-01T18:16:21.386Z,101179.50
2022-12-01T18:18:48.375Z,101177.72
2022-12-01T18:21:22.460Z,101183.88
2022-12-01T18:23:58.083Z,101175.97
2022-12-01T18:26:26.493Z,101180.28
2022-12-01T18:29:16.161Z,101185.53
2022-12-01T18:31:56.695Z,101185.53
2022-12-01T18:34:40.420Z,101187.34
2022-12-01T18:39:56.792Z,101182.06
2022-12-01T18:42:24.288Z,101179.50
2022-12-01T18:44:51.964Z,101182.06
2022-12-01T18:47:18.644Z,101177.69
2022-12-01T18:49:46.158Z,101180.31
2022-12-01T18:52:12.702Z,101182.06
2022-12-01T18:54:39.847Z,101186.50
2022-12-01T18:57:06.417Z,101183.84
2022-12-01T18:59:33.636Z,101177.66
2022-12-01T19:02:00.334Z,101184.63
2022-12-01T19:04:27.602Z,101175.81
2022-12-01T19:06:55.228Z,101174.94
2022-12-01T19:09:22.578Z,101177.56
2022-12-01T19:11:49.124Z,101180.19
2022-12-01T19:14:19.059Z,101178.44
2022-12-01T19:16:46.334Z,101184.59
2022-12-01T19:19:13.987Z,101178.44
2022-12-01T19:21:40.712Z,101181.09
2022-12-01T19:24:07.717Z,101182.00
2022-12-01T19:30:48.433Z,101180.28
2022-12-01T19:33:15.671Z,101173.31
2022-12-01T19:35:42.890Z,101179.47
2022-12-01T19:38:10.290Z,101172.44
2022-12-01T19:40:39.014Z,101172.47
2022-12-01T19:43:05.656Z,101179.53
2022-12-01T19:45:33.973Z,101183.06
2022-12-01T19:48:00.676Z,101177.81
2022-12-01T19:50:28.120Z,101181.25
2022-12-01T19:52:54.666Z,101181.25
2022-12-01T19:55:21.883Z,101184.75
2022-12-01T19:57:51.845Z,101179.50
2022-12-01T20:00:22.255Z,101184.75
2022-12-01T20:02:49.643Z,101177.72
2022-12-01T20:05:17.355Z,101183.81
2022-12-01T20:07:44.214Z,101182.97
2022-12-01T20:10:11.387Z,101177.69
2022-12-01T20:12:37.991Z,101180.34
2022-12-01T20:15:08.576Z,101174.22
2022-12-01T20:17:36.760Z,101170.69
2022-12-01T20:20:05.250Z,101172.44
2022-12-01T20:22:35.944Z,101172.44
2022-12-01T20:25:12.840Z,101169.78
2022-12-01T20:27:39.716Z,101172.44
2022-12-01T20:30:07.280Z,101165.41
2022-12-01T20:32:33.889Z,101171.59
2022-12-01T20:35:02.465Z,101165.41
2022-12-01T20:37:29.058Z,101165.38
2022-12-01T20:39:56.369Z,101163.63
2022-12-01T20:42:24.462Z,101160.97
2022-12-01T20:44:51.946Z,101158.38
2022-12-01T20:47:20.559Z,101161.88
2022-12-01T20:49:47.531Z,101164.53
2022-12-01T20:52:14.256Z,101157.47
2022-12-01T20:54:42.760Z,101159.25
2022-12-01T20:57:09.790Z,101162.81
2022-12-01T20:59:37.051Z,101161.06
2022-12-01T21:02:03.635Z,101159.28
2022-12-01T21:04:31.072Z,101156.69
2022-12-01T21:06:58.526Z,101161.91
2022-12-01T21:09:25.888Z,101150.53
2022-12-01T21:12:11.206Z,101147.88
2022-12-01T21:15:14.652Z,101147.84
2022-12-01T21:17:46.419Z,101149.56
2022-12-01T21:20:51.011Z,101149.53
2022-12-01T21:23:17.987Z,101147.78
2022-12-01T21:25:45.195Z,101143.38
2022-12-01T21:28:20.985Z,101146.88
